sensor_id;sensor_type;location;lat;lon;timestamp;P1;durP1;ratioP1;P2;durP2;ratioP2
21733;SDS011;11029;47.820;10.534;2023-11-21T00:01:50;2.83;;;1.02;;
21733;SDS011;11029;47.820;10.534;2023-11-21T00:04:36;2.58;;;0.90;;
21733;SDS011;11029;47.820;10.534;2023-11-21T00:07:22;5.43;;;1.10;;
21733;SDS011;11029;47.820;10.534;2023-11-21T00:10:08;5.18;;;1.40;;
21733;SDS011;11029;47.820;10.534;2023-11-21T00:12:55;4.50;;;1.08;;
21733;SDS011;11029;47.820;10.534;2023-11-21T00:15:41;3.97;;;0.75;;
21733;SDS011;11029;47.820;10.534;2023-11-21T00:18:26;4.57;;;1.08;;
21733;SDS011;11029;47.820;10.534;2023-11-21T00:21:12;5.38;;;1.00;;
21733;SDS011;11029;47.820;10.534;2023-11-21T00:23:57;6.30;;;1.30;;
21733;SDS011;11029;47.820;10.534;2023-11-21T00:26:43;4.47;;;1.45;;
21733;SDS011;11029;47.820;10.534;2023-11-21T00:29:29;2.90;;;0.98;;
21733;SDS011;11029;47.820;10.534;2023-11-21T00:32:14;3.33;;;1.08;;
21733;SDS011;11029;47.820;10.534;2023-11-21T00:35:00;2.55;;;1.55;;
21733;SDS011;11029;47.820;10.534;2023-11-21T00:37:46;3.88;;;1.15;;
21733;SDS011;11029;47.820;10.534;2023-11-21T00:40:34;4.65;;;0.95;;
21733;SDS011;11029;47.820;10.534;2023-11-21T00:43:20;5.30;;;1.15;;
21733;SDS011;11029;47.820;10.534;2023-11-21T00:46:06;9.13;;;1.15;;
21733;SDS011;11029;47.820;10.534;2023-11-21T00:48:54;3.05;;;0.80;;
21733;SDS011;11029;47.820;10.534;2023-11-21T00:51:40;2.75;;;0.93;;
21733;SDS011;11029;47.820;10.534;2023-11-21T00:54:27;4.97;;;1.00;;
21733;SDS011;11029;47.820;10.534;2023-11-21T00:57:13;3.53;;;0.90;;
21733;SDS011;11029;47.820;10.534;2023-11-21T01:00:00;2.67;;;1.00;;
21733;SDS011;11029;47.820;10.534;2023-11-21T01:02:47;4.35;;;1.15;;
21733;SDS011;11029;47.820;10.534;2023-11-21T01:05:33;3.85;;;1.33;;
21733;SDS011;11029;47.820;10.534;2023-11-21T01:08:19;6.10;;;1.00;;
21733;SDS011;11029;47.820;10.534;2023-11-21T01:11:05;4.90;;;0.90;;
21733;SDS011;11029;47.820;10.534;2023-11-21T01:13:53;5.65;;;1.10;;
21733;SDS011;11029;47.820;10.534;2023-11-21T01:16:39;4.68;;;0.80;;
21733;SDS011;11029;47.820;10.534;2023-11-21T01:19:25;2.28;;;0.90;;
21733;SDS011;11029;47.820;10.534;2023-11-21T01:22:11;3.67;;;1.05;;
21733;SDS011;11029;47.820;10.534;2023-11-21T01:24:56;3.70;;;0.70;;
21733;SDS011;11029;47.820;10.534;2023-11-21T01:27:42;2.17;;;0.80;;
21733;SDS011;11029;47.820;10.534;2023-11-21T01:30:28;7.53;;;0.93;;
21733;SDS011;11029;47.820;10.534;2023-11-21T01:33:15;2.25;;;0.68;;
21733;SDS011;11029;47.820;10.534;2023-11-21T01:36:01;3.03;;;0.80;;
21733;SDS011;11029;47.820;10.534;2023-11-21T01:38:46;5.13;;;0.90;;
21733;SDS011;11029;47.820;10.534;2023-11-21T01:41:34;4.07;;;1.00;;
21733;SDS011;11029;47.820;10.534;2023-11-21T01:44:19;5.40;;;1.00;;
21733;SDS011;11029;47.820;10.534;2023-11-21T01:47:05;2.40;;;0.70;;
21733;SDS011;11029;47.820;10.534;2023-11-21T01:49:51;3.25;;;0.98;;
21733;SDS011;11029;47.820;10.534;2023-11-21T01:52:38;3.78;;;0.73;;
21733;SDS011;11029;47.820;10.534;2023-11-21T01:55:25;8.93;;;1.05;;
21733;SDS011;11029;47.820;10.534;2023-11-21T01:58:13;4.13;;;0.93;;
21733;SDS011;11029;47.820;10.534;2023-11-21T02:00:59;2.05;;;0.75;;
21733;SDS011;11029;47.820;10.534;2023-11-21T02:03:46;5.25;;;0.70;;
21733;SDS011;11029;47.820;10.534;2023-11-21T02:06:32;3.38;;;0.98;;
21733;SDS011;11029;47.820;10.534;2023-11-21T02:09:22;1.10;;;0.80;;
21733;SDS011;11029;47.820;10.534;2023-11-21T02:12:12;5.03;;;0.80;;
21733;SDS011;11029;47.820;10.534;2023-11-21T02:14:57;2.50;;;0.95;;
21733;SDS011;11029;47.820;10.534;2023-11-21T02:17:43;4.07;;;0.80;;
21733;SDS011;11029;47.820;10.534;2023-11-21T02:20:29;2.42;;;0.65;;
21733;SDS011;11029;47.820;10.534;2023-11-21T02:23:15;3.58;;;0.75;;
21733;SDS011;11029;47.820;10.534;2023-11-21T02:26:01;4.38;;;0.75;;
21733;SDS011;11029;47.820;10.534;2023-11-21T02:28:49;3.60;;;1.05;;
21733;SDS011;11029;47.820;10.534;2023-11-21T02:31:36;4.13;;;0.80;;
21733;SDS011;11029;47.820;10.534;2023-11-21T02:34:23;4.25;;;1.30;;
21733;SDS011;11029;47.820;10.534;2023-11-21T02:37:12;3.90;;;1.05;;
21733;SDS011;11029;47.820;10.534;2023-11-21T02:39:58;4.97;;;0.90;;
21733;SDS011;11029;47.820;10.534;2023-11-21T02:42:44;3.67;;;0.80;;
21733;SDS011;11029;47.820;10.534;2023-11-21T02:45:31;2.55;;;0.88;;
21733;SDS011;11029;47.820;10.534;2023-11-21T02:48:17;5.30;;;0.80;;
21733;SDS011;11029;47.820;10.534;2023-11-21T02:51:04;4.35;;;1.27;;
21733;SDS011;11029;47.820;10.534;2023-11-21T02:53:50;2.15;;;0.70;;
21733;SDS011;11029;47.820;10.534;2023-11-21T02:56:36;1.80;;;0.98;;
21733;SDS011;11029;47.820;10.534;2023-11-21T02:59:22;3.20;;;0.80;;
21733;SDS011;11029;47.820;10.534;2023-11-21T03:02:07;6.57;;;1.17;;
21733;SDS011;11029;47.820;10.534;2023-11-21T03:04:53;4.40;;;0.77;;
21733;SDS011;11029;47.820;10.534;2023-11-21T03:07:39;6.20;;;1.20;;
21733;SDS011;11029;47.820;10.534;2023-11-21T03:10:25;4.35;;;0.90;;
21733;SDS011;11029;47.820;10.534;2023-11-21T03:13:12;6.97;;;1.08;;
21733;SDS011;11029;47.820;10.534;2023-11-21T03:15:58;6.57;;;1.33;;
21733;SDS011;11029;47.820;10.534;2023-11-21T03:18:44;4.40;;;1.25;;
21733;SDS011;11029;47.820;10.534;2023-11-21T03:21:30;5.32;;;1.25;;
21733;SDS011;11029;47.820;10.534;2023-11-21T03:24:16;5.55;;;1.10;;
21733;SDS011;11029;47.820;10.534;2023-11-21T03:27:02;4.05;;;0.82;;
21733;SDS011;11029;47.820;10.534;2023-11-21T03:29:49;2.50;;;0.80;;
21733;SDS011;11029;47.820;10.534;2023-11-21T03:32:35;6.10;;;1.45;;
21733;SDS011;11029;47.820;10.534;2023-11-21T03:35:20;4.22;;;1.00;;
21733;SDS011;11029;47.820;10.534;2023-11-21T03:38:06;3.38;;;1.00;;
21733;SDS011;11029;47.820;10.534;2023-11-21T03:40:51;2.45;;;0.77;;
21733;SDS011;11029;47.820;10.534;2023-11-21T03:43:38;2.33;;;0.90;;
21733;SDS011;11029;47.820;10.534;2023-11-21T03:46:24;2.40;;;0.80;;
21733;SDS011;11029;47.820;10.534;2023-11-21T03:49:10;5.28;;;0.93;;
21733;SDS011;11029;47.820;10.534;2023-11-21T03:51:56;3.28;;;0.90;;
21733;SDS011;11029;47.820;10.534;2023-11-21T03:54:41;4.63;;;1.23;;
21733;SDS011;11029;47.820;10.534;2023-11-21T03:57:28;2.15;;;0.90;;
21733;SDS011;11029;47.820;10.534;2023-11-21T04:00:15;3.15;;;1.15;;
21733;SDS011;11029;47.820;10.534;2023-11-21T04:03:02;6.03;;;0.73;;
21733;SDS011;11029;47.820;10.534;2023-11-21T04:05:48;2.72;;;0.88;;
21733;SDS011;11029;47.820;10.534;2023-11-21T04:08:34;4.97;;;1.10;;
21733;SDS011;11029;47.820;10.534;2023-11-21T04:11:19;2.88;;;1.08;;
21733;SDS011;11029;47.820;10.534;2023-11-21T04:14:05;2.00;;;0.90;;
21733;SDS011;11029;47.820;10.534;2023-11-21T04:16:51;3.33;;;1.10;;
21733;SDS011;11029;47.820;10.534;2023-11-21T04:19:38;2.03;;;0.80;;
21733;SDS011;11029;47.820;10.534;2023-11-21T04:22:23;2.55;;;0.70;;
21733;SDS011;11029;47.820;10.534;2023-11-21T04:25:09;4.75;;;0.90;;
21733;SDS011;11029;47.820;10.534;2023-11-21T04:27:56;2.15;;;0.70;;
21733;SDS011;11029;47.820;10.534;2023-11-21T04:30:42;1.70;;;1.17;;
21733;SDS011;11029;47.820;10.534;2023-11-21T04:33:27;2.13;;;0.80;;
21733;SDS011;11029;47.820;10.534;2023-11-21T04:36:13;5.93;;;1.60;;
21733;SDS011;11029;47.820;10.534;2023-11-21T04:38:59;1.33;;;0.98;;
21733;SDS011;11029;47.820;10.534;2023-11-21T04:41:45;2.97;;;1.15;;
21733;SDS011;11029;47.820;10.534;2023-11-21T04:44:30;3.97;;;1.90;;
21733;SDS011;11029;47.820;10.534;2023-11-21T04:47:15;2.38;;;1.00;;
21733;SDS011;11029;47.820;10.534;2023-11-21T04:50:02;0.98;;;0.73;;
21733;SDS011;11029;47.820;10.534;2023-11-21T04:52:48;1.42;;;0.50;;
21733;SDS011;11029;47.820;10.534;2023-11-21T04:55:34;1.05;;;0.60;;
21733;SDS011;11029;47.820;10.534;2023-11-21T04:58:20;1.33;;;0.68;;
21733;SDS011;11029;47.820;10.534;2023-11-21T05:01:07;3.60;;;0.75;;
21733;SDS011;11029;47.820;10.534;2023-11-21T05:03:53;2.83;;;0.65;;
21733;SDS011;11029;47.820;10.534;2023-11-21T05:06:39;2.05;;;0.60;;
21733;SDS011;11029;47.820;10.534;2023-11-21T05:09:25;1.63;;;0.82;;
21733;SDS011;11029;47.820;10.534;2023-11-21T05:12:10;2.25;;;0.63;;
21733;SDS011;11029;47.820;10.534;2023-11-21T05:14:57;1.33;;;0.63;;
21733;SDS011;11029;47.820;10.534;2023-11-21T05:17:43;1.27;;;0.80;;
21733;SDS011;11029;47.820;10.534;2023-11-21T05:20:31;1.60;;;0.90;;
21733;SDS011;11029;47.820;10.534;2023-11-21T05:23:18;3.55;;;0.85;;
21733;SDS011;11029;47.820;10.534;2023-11-21T05:26:03;2.25;;;0.68;;
21733;SDS011;11029;47.820;10.534;2023-11-21T05:28:49;2.70;;;0.60;;
21733;SDS011;11029;47.820;10.534;2023-11-21T05:31:35;3.33;;;0.55;;
21733;SDS011;11029;47.820;10.534;2023-11-21T05:34:20;1.35;;;0.65;;
21733;SDS011;11029;47.820;10.534;2023-11-21T05:37:08;0.63;;;0.60;;
21733;SDS011;11029;47.820;10.534;2023-11-21T05:39:54;3.50;;;0.93;;
21733;SDS011;11029;47.820;10.534;2023-11-21T05:42:41;0.70;;;0.70;;
21733;SDS011;11029;47.820;10.534;2023-11-21T05:45:28;1.33;;;0.95;;
21733;SDS011;11029;47.820;10.534;2023-11-21T05:48:15;1.00;;;0.98;;
21733;SDS011;11029;47.820;10.534;2023-11-21T05:51:00;0.80;;;0.50;;
21733;SDS011;11029;47.820;10.534;2023-11-21T05:53:46;0.60;;;0.60;;
21733;SDS011;11029;47.820;10.534;2023-11-21T05:56:32;1.00;;;0.60;;
21733;SDS011;11029;47.820;10.534;2023-11-21T05:59:17;0.70;;;0.60;;
21733;SDS011;11029;47.820;10.534;2023-11-21T06:02:07;1.08;;;0.75;;
21733;SDS011;11029;47.820;10.534;2023-11-21T06:04:52;0.40;;;0.40;;
21733;SDS011;11029;47.820;10.534;2023-11-21T06:07:38;1.67;;;0.90;;
21733;SDS011;11029;47.820;10.534;2023-11-21T06:10:25;1.25;;;0.70;;
21733;SDS011;11029;47.820;10.534;2023-11-21T06:13:10;1.65;;;0.75;;
21733;SDS011;11029;47.820;10.534;2023-11-21T06:15:56;1.38;;;0.63;;
21733;SDS011;11029;47.820;10.534;2023-11-21T06:18:42;0.88;;;0.57;;
21733;SDS011;11029;47.820;10.534;2023-11-21T06:21:28;2.40;;;0.80;;
21733;SDS011;11029;47.820;10.534;2023-11-21T06:24:14;1.90;;;0.70;;
21733;SDS011;11029;47.820;10.534;2023-11-21T06:27:00;0.63;;;0.60;;
21733;SDS011;11029;47.820;10.534;2023-11-21T06:29:49;0.88;;;0.68;;
21733;SDS011;11029;47.820;10.534;2023-11-21T06:32:35;0.60;;;0.60;;
21733;SDS011;11029;47.820;10.534;2023-11-21T06:35:21;1.40;;;0.80;;
21733;SDS011;11029;47.820;10.534;2023-11-21T06:38:07;1.17;;;0.90;;
21733;SDS011;11029;47.820;10.534;2023-11-21T06:40:54;1.45;;;0.60;;
21733;SDS011;11029;47.820;10.534;2023-11-21T06:43:41;0.98;;;0.55;;
21733;SDS011;11029;47.820;10.534;2023-11-21T06:46:31;1.08;;;0.50;;
21733;SDS011;11029;47.820;10.534;2023-11-21T06:49:17;1.20;;;0.63;;
21733;SDS011;11029;47.820;10.534;2023-11-21T06:52:03;1.08;;;0.80;;
21733;SDS011;11029;47.820;10.534;2023-11-21T06:54:48;1.48;;;0.80;;
21733;SDS011;11029;47.820;10.534;2023-11-21T06:57:36;1.25;;;0.85;;
21733;SDS011;11029;47.820;10.534;2023-11-21T07:00:23;2.08;;;1.05;;
21733;SDS011;11029;47.820;10.534;2023-11-21T07:03:08;1.77;;;0.73;;
21733;SDS011;11029;47.820;10.534;2023-11-21T07:05:54;0.95;;;0.52;;
21733;SDS011;11029;47.820;10.534;2023-11-21T07:08:40;0.68;;;0.55;;
21733;SDS011;11029;47.820;10.534;2023-11-21T07:11:26;1.70;;;0.50;;
21733;SDS011;11029;47.820;10.534;2023-11-21T07:14:11;1.10;;;0.68;;
21733;SDS011;11029;47.820;10.534;2023-11-21T07:16:57;0.90;;;0.60;;
21733;SDS011;11029;47.820;10.534;2023-11-21T07:19:43;0.60;;;0.60;;
21733;SDS011;11029;47.820;10.534;2023-11-21T07:22:28;1.75;;;0.70;;
21733;SDS011;11029;47.820;10.534;2023-11-21T07:25:14;1.20;;;0.65;;
21733;SDS011;11029;47.820;10.534;2023-11-21T07:28:00;1.08;;;0.68;;
21733;SDS011;11029;47.820;10.534;2023-11-21T07:30:46;1.92;;;0.60;;
21733;SDS011;11029;47.820;10.534;2023-11-21T07:33:31;1.00;;;0.90;;
21733;SDS011;11029;47.820;10.534;2023-11-21T07:36:17;2.33;;;1.58;;
21733;SDS011;11029;47.820;10.534;2023-11-21T07:39:06;1.80;;;0.80;;
21733;SDS011;11029;47.820;10.534;2023-11-21T07:41:51;1.45;;;1.05;;
21733;SDS011;11029;47.820;10.534;2023-11-21T07:44:37;2.20;;;1.20;;
21733;SDS011;11029;47.820;10.534;2023-11-21T07:47:22;2.35;;;1.08;;
21733;SDS011;11029;47.820;10.534;2023-11-21T07:50:12;1.60;;;1.23;;
21733;SDS011;11029;47.820;10.534;2023-11-21T07:52:59;2.97;;;1.80;;
21733;SDS011;11029;47.820;10.534;2023-11-21T07:55:45;1.52;;;1.42;;
21733;SDS011;11029;47.820;10.534;2023-11-21T07:58:32;3.85;;;2.22;;
21733;SDS011;11029;47.820;10.534;2023-11-21T08:01:18;1.30;;;1.20;;
21733;SDS011;11029;47.820;10.534;2023-11-21T08:04:04;1.67;;;1.20;;
21733;SDS011;11029;47.820;10.534;2023-11-21T08:06:50;2.92;;;0.98;;
21733;SDS011;11029;47.820;10.534;2023-11-21T08:09:36;1.50;;;0.80;;
21733;SDS011;11029;47.820;10.534;2023-11-21T08:12:21;1.75;;;1.33;;
21733;SDS011;11029;47.820;10.534;2023-11-21T08:15:07;2.63;;;2.05;;
21733;SDS011;11029;47.820;10.534;2023-11-21T08:17:54;2.83;;;1.40;;
21733;SDS011;11029;47.820;10.534;2023-11-21T08:20:39;3.85;;;1.00;;
21733;SDS011;11029;47.820;10.534;2023-11-21T08:23:25;1.02;;;0.70;;
21733;SDS011;11029;47.820;10.534;2023-11-21T08:26:11;2.90;;;1.20;;
21733;SDS011;11029;47.820;10.534;2023-11-21T08:28:56;3.00;;;0.90;;
21733;SDS011;11029;47.820;10.534;2023-11-21T08:31:42;2.65;;;1.52;;
21733;SDS011;11029;47.820;10.534;2023-11-21T08:34:29;1.55;;;1.10;;
21733;SDS011;11029;47.820;10.534;2023-11-21T08:37:15;3.45;;;1.02;;
21733;SDS011;11029;47.820;10.534;2023-11-21T08:40:00;8.07;;;4.20;;
21733;SDS011;11029;47.820;10.534;2023-11-21T08:42:47;1.30;;;1.15;;
21733;SDS011;11029;47.820;10.534;2023-11-21T08:45:33;2.28;;;1.50;;
21733;SDS011;11029;47.820;10.534;2023-11-21T08:48:19;0.98;;;0.70;;
21733;SDS011;11029;47.820;10.534;2023-11-21T08:51:05;2.45;;;1.30;;
21733;SDS011;11029;47.820;10.534;2023-11-21T08:53:51;1.15;;;0.90;;
21733;SDS011;11029;47.820;10.534;2023-11-21T08:56:38;2.78;;;0.88;;
21733;SDS011;11029;47.820;10.534;2023-11-21T08:59:24;0.95;;;0.70;;
21733;SDS011;11029;47.820;10.534;2023-11-21T09:02:11;0.70;;;0.70;;
21733;SDS011;11029;47.820;10.534;2023-11-21T09:04:56;1.13;;;0.80;;
21733;SDS011;11029;47.820;10.534;2023-11-21T09:07:43;0.60;;;0.60;;
21733;SDS011;11029;47.820;10.534;2023-11-21T09:10:31;1.00;;;0.63;;
21733;SDS011;11029;47.820;10.534;2023-11-21T09:13:17;3.03;;;0.77;;
21733;SDS011;11029;47.820;10.534;2023-11-21T09:16:02;2.45;;;0.90;;
21733;SDS011;11029;47.820;10.534;2023-11-21T09:18:48;1.52;;;0.73;;
21733;SDS011;11029;47.820;10.534;2023-11-21T09:21:33;1.58;;;1.08;;
21733;SDS011;11029;47.820;10.534;2023-11-21T09:24:19;0.98;;;0.77;;
21733;SDS011;11029;47.820;10.534;2023-11-21T09:27:05;2.03;;;0.80;;
21733;SDS011;11029;47.820;10.534;2023-11-21T09:29:50;2.35;;;0.60;;
21733;SDS011;11029;47.820;10.534;2023-11-21T09:32:37;1.17;;;0.68;;
21733;SDS011;11029;47.820;10.534;2023-11-21T09:35:23;0.55;;;0.40;;
21733;SDS011;11029;47.820;10.534;2023-11-21T09:38:09;0.50;;;0.50;;
21733;SDS011;11029;47.820;10.534;2023-11-21T09:40:56;0.47;;;0.47;;
21733;SDS011;11029;47.820;10.534;2023-11-21T09:43:44;0.50;;;0.50;;
21733;SDS011;11029;47.820;10.534;2023-11-21T09:46:31;0.65;;;0.40;;
21733;SDS011;11029;47.820;10.534;2023-11-21T09:49:18;0.40;;;0.40;;
21733;SDS011;11029;47.820;10.534;2023-11-21T09:52:10;1.48;;;1.20;;
21733;SDS011;11029;47.820;10.534;2023-11-21T09:55:09;0.40;;;0.40;;
21733;SDS011;11029;47.820;10.534;2023-11-21T09:58:02;2.30;;;0.65;;
21733;SDS011;11029;47.820;10.534;2023-11-21T10:00:53;1.52;;;0.50;;
21733;SDS011;11029;47.820;10.534;2023-11-21T10:03:42;0.88;;;0.63;;
21733;SDS011;11029;47.820;10.534;2023-11-21T10:06:28;0.40;;;0.40;;
21733;SDS011;11029;47.820;10.534;2023-11-21T10:09:17;1.08;;;0.80;;
21733;SDS011;11029;47.820;10.534;2023-11-21T10:12:06;1.50;;;0.50;;
21733;SDS011;11029;47.820;10.534;2023-11-21T10:14:53;2.55;;;0.68;;
21733;SDS011;11029;47.820;10.534;2023-11-21T10:17:43;2.63;;;1.00;;
21733;SDS011;11029;47.820;10.534;2023-11-21T10:20:30;1.13;;;0.80;;
21733;SDS011;11029;47.820;10.534;2023-11-21T10:23:19;3.15;;;2.05;;
21733;SDS011;11029;47.820;10.534;2023-11-21T10:26:07;1.25;;;0.73;;
21733;SDS011;11029;47.820;10.534;2023-11-21T10:29:03;0.60;;;0.60;;
21733;SDS011;11029;47.820;10.534;2023-11-21T10:31:49;1.75;;;0.50;;
21733;SDS011;11029;47.820;10.534;2023-11-21T10:34:36;0.75;;;0.70;;
21733;SDS011;11029;47.820;10.534;2023-11-21T10:37:22;2.05;;;1.15;;
21733;SDS011;11029;47.820;10.534;2023-11-21T10:40:11;0.90;;;0.70;;
21733;SDS011;11029;47.820;10.534;2023-11-21T10:43:05;0.98;;;0.70;;
21733;SDS011;11029;47.820;10.534;2023-11-21T10:45:55;2.53;;;0.85;;
21733;SDS011;11029;47.820;10.534;2023-11-21T10:48:44;0.60;;;0.60;;
21733;SDS011;11029;47.820;10.534;2023-11-21T10:51:30;0.82;;;0.60;;
21733;SDS011;11029;47.820;10.534;2023-11-21T10:54:19;0.85;;;0.68;;
21733;SDS011;11029;47.820;10.534;2023-11-21T10:57:06;1.92;;;0.70;;
21733;SDS011;11029;47.820;10.534;2023-11-21T10:59:52;1.17;;;0.80;;
21733;SDS011;11029;47.820;10.534;2023-11-21T11:02:40;1.17;;;0.90;;
21733;SDS011;11029;47.820;10.534;2023-11-21T11:05:28;0.70;;;0.70;;
21733;SDS011;11029;47.820;10.534;2023-11-21T11:08:17;1.65;;;0.70;;
21733;SDS011;11029;47.820;10.534;2023-11-21T11:11:07;1.02;;;0.60;;
21733;SDS011;11029;47.820;10.534;2023-11-21T11:13:55;1.27;;;0.85;;
21733;SDS011;11029;47.820;10.534;2023-11-21T11:16:41;1.98;;;0.70;;
21733;SDS011;11029;47.820;10.534;2023-11-21T11:19:30;0.80;;;0.80;;
21733;SDS011;11029;47.820;10.534;2023-11-21T11:22:37;1.15;;;0.77;;
21733;SDS011;11029;47.820;10.534;2023-11-21T11:25:37;1.08;;;0.80;;
21733;SDS011;11029;47.820;10.534;2023-11-21T11:28:47;0.90;;;0.90;;
21733;SDS011;11029;47.820;10.534;2023-11-21T11:34:30;1.42;;;1.02;;
21733;SDS011;11029;47.820;10.534;2023-11-21T11:37:22;1.20;;;1.10;;
21733;SDS011;11029;47.820;10.534;2023-11-21T11:40:10;1.38;;;0.90;;
21733;SDS011;11029;47.820;10.534;2023-11-21T11:42:57;0.88;;;0.82;;
21733;SDS011;11029;47.820;10.534;2023-11-21T11:45:43;1.23;;;1.10;;
21733;SDS011;11029;47.820;10.534;2023-11-21T11:48:34;2.88;;;1.30;;
21733;SDS011;11029;47.820;10.534;2023-11-21T11:51:24;3.90;;;1.45;;
21733;SDS011;11029;47.820;10.534;2023-11-21T11:54:10;1.23;;;0.90;;
21733;SDS011;11029;47.820;10.534;2023-11-21T11:56:55;0.90;;;0.90;;
21733;SDS011;11029;47.820;10.534;2023-11-21T12:03:02;1.20;;;1.10;;
21733;SDS011;11029;47.820;10.534;2023-11-21T12:05:49;1.50;;;1.40;;
21733;SDS011;11029;47.820;10.534;2023-11-21T12:08:37;1.90;;;1.60;;
21733;SDS011;11029;47.820;10.534;2023-11-21T12:11:30;1.58;;;0.85;;
21733;SDS011;11029;47.820;10.534;2023-11-21T12:14:17;2.30;;;1.20;;
21733;SDS011;11029;47.820;10.534;2023-11-21T12:17:03;1.63;;;1.33;;
21733;SDS011;11029;47.820;10.534;2023-11-21T12:19:49;1.73;;;1.00;;
21733;SDS011;11029;47.820;10.534;2023-11-21T12:22:37;1.00;;;0.90;;
21733;SDS011;11029;47.820;10.534;2023-11-21T12:25:24;1.10;;;1.00;;
21733;SDS011;11029;47.820;10.534;2023-11-21T12:28:17;0.77;;;0.77;;
21733;SDS011;11029;47.820;10.534;2023-11-21T12:31:03;0.90;;;0.90;;
21733;SDS011;11029;47.820;10.534;2023-11-21T12:34:03;1.20;;;1.10;;
21733;SDS011;11029;47.820;10.534;2023-11-21T12:36:51;1.30;;;1.00;;
21733;SDS011;11029;47.820;10.534;2023-11-21T12:39:39;1.17;;;0.90;;
21733;SDS011;11029;47.820;10.534;2023-11-21T12:42:25;0.10;;;0.10;;
21733;SDS011;11029;47.820;10.534;2023-11-21T12:45:18;0.20;;;0.17;;
21733;SDS011;11029;47.820;10.534;2023-11-21T12:48:10;0.20;;;0.20;;
21733;SDS011;11029;47.820;10.534;2023-11-21T12:50:57;0.10;;;0.10;;
21733;SDS011;11029;47.820;10.534;2023-11-21T12:53:45;0.10;;;0.10;;
21733;SDS011;11029;47.820;10.534;2023-11-21T12:56:32;0.20;;;0.20;;
21733;SDS011;11029;47.820;10.534;2023-11-21T12:59:17;0.10;;;0.10;;
21733;SDS011;11029;47.820;10.534;2023-11-21T13:02:05;2.97;;;2.72;;
21733;SDS011;11029;47.820;10.534;2023-11-21T13:04:51;30.50;;;22.65;;
21733;SDS011;11029;47.820;10.534;2023-11-21T13:07:42;17.30;;;12.60;;
21733;SDS011;11029;47.820;10.534;2023-11-21T13:10:32;1.88;;;1.52;;
21733;SDS011;11029;47.820;10.534;2023-11-21T13:13:21;0.40;;;0.30;;
21733;SDS011;11029;47.820;10.534;2023-11-21T13:16:09;0.20;;;0.20;;
21733;SDS011;11029;47.820;10.534;2023-11-21T13:18:55;0.25;;;0.25;;
21733;SDS011;11029;47.820;10.534;2023-11-21T13:21:41;0.30;;;0.30;;
21733;SDS011;11029;47.820;10.534;2023-11-21T13:24:26;0.22;;;0.20;;
21733;SDS011;11029;47.820;10.534;2023-11-21T13:27:12;0.73;;;0.50;;
21733;SDS011;11029;47.820;10.534;2023-11-21T13:30:00;1.05;;;0.40;;
21733;SDS011;11029;47.820;10.534;2023-11-21T13:32:45;0.30;;;0.30;;
21733;SDS011;11029;47.820;10.534;2023-11-21T13:35:32;0.40;;;0.40;;
21733;SDS011;11029;47.820;10.534;2023-11-21T13:38:28;0.43;;;0.43;;
21733;SDS011;11029;47.820;10.534;2023-11-21T13:41:18;0.30;;;0.30;;
21733;SDS011;11029;47.820;10.534;2023-11-21T13:44:04;0.30;;;0.30;;
21733;SDS011;11029;47.820;10.534;2023-11-21T13:47:02;0.30;;;0.30;;
21733;SDS011;11029;47.820;10.534;2023-11-21T13:49:50;0.30;;;0.30;;
21733;SDS011;11029;47.820;10.534;2023-11-21T13:52:36;0.40;;;0.40;;
21733;SDS011;11029;47.820;10.534;2023-11-21T13:55:22;0.47;;;0.47;;
21733;SDS011;11029;47.820;10.534;2023-11-21T13:58:09;0.40;;;0.40;;
21733;SDS011;11029;47.820;10.534;2023-11-21T14:01:01;0.20;;;0.20;;
21733;SDS011;11029;47.820;10.534;2023-11-21T14:03:50;0.28;;;0.28;;
21733;SDS011;11029;47.820;10.534;2023-11-21T14:06:46;3.15;;;2.70;;
21733;SDS011;11029;47.820;10.534;2023-11-21T14:09:34;1.10;;;1.00;;
21733;SDS011;11029;47.820;10.534;2023-11-21T14:12:29;0.50;;;0.50;;
21733;SDS011;11029;47.820;10.534;2023-11-21T14:15:22;5.90;;;3.85;;
21733;SDS011;11029;47.820;10.534;2023-11-21T14:18:07;14.95;;;9.00;;
21733;SDS011;11029;47.820;10.534;2023-11-21T14:20:55;8.25;;;6.00;;
21733;SDS011;11029;47.820;10.534;2023-11-21T14:23:41;10.27;;;6.22;;
21733;SDS011;11029;47.820;10.534;2023-11-21T14:26:29;23.23;;;12.88;;
21733;SDS011;11029;47.820;10.534;2023-11-21T14:29:18;4.07;;;3.10;;
21733;SDS011;11029;47.820;10.534;2023-11-21T14:32:08;4.07;;;3.60;;
21733;SDS011;11029;47.820;10.534;2023-11-21T14:34:54;7.25;;;4.53;;
21733;SDS011;11029;47.820;10.534;2023-11-21T14:37:41;1.10;;;0.65;;
21733;SDS011;11029;47.820;10.534;2023-11-21T14:40:26;2.13;;;1.70;;
21733;SDS011;11029;47.820;10.534;2023-11-21T14:43:17;3.70;;;2.55;;
21733;SDS011;11029;47.820;10.534;2023-11-21T14:46:05;1.00;;;0.90;;
21733;SDS011;11029;47.820;10.534;2023-11-21T14:48:55;0.50;;;0.50;;
21733;SDS011;11029;47.820;10.534;2023-11-21T14:51:56;1.40;;;0.60;;
21733;SDS011;11029;47.820;10.534;2023-11-21T14:54:45;8.55;;;5.15;;
21733;SDS011;11029;47.820;10.534;2023-11-21T14:57:31;9.20;;;5.80;;
21733;SDS011;11029;47.820;10.534;2023-11-21T15:00:18;7.43;;;5.68;;
21733;SDS011;11029;47.820;10.534;2023-11-21T15:03:20;8.00;;;4.68;;
21733;SDS011;11029;47.820;10.534;2023-11-21T15:06:25;4.50;;;2.97;;
21733;SDS011;11029;47.820;10.534;2023-11-21T15:09:14;7.18;;;5.28;;
21733;SDS011;11029;47.820;10.534;2023-11-21T15:11:59;11.90;;;8.57;;
21733;SDS011;11029;47.820;10.534;2023-11-21T15:15:01;15.63;;;10.70;;
21733;SDS011;11029;47.820;10.534;2023-11-21T15:17:48;45.78;;;26.83;;
21733;SDS011;11029;47.820;10.534;2023-11-21T15:20:34;27.15;;;16.05;;
21733;SDS011;11029;47.820;10.534;2023-11-21T15:23:20;7.28;;;3.85;;
21733;SDS011;11029;47.820;10.534;2023-11-21T15:26:06;4.45;;;3.00;;
21733;SDS011;11029;47.820;10.534;2023-11-21T15:28:53;7.85;;;4.18;;
21733;SDS011;11029;47.820;10.534;2023-11-21T15:31:40;6.20;;;4.00;;
21733;SDS011;11029;47.820;10.534;2023-11-21T15:34:30;2.90;;;2.10;;
21733;SDS011;11029;47.820;10.534;2023-11-21T15:37:16;3.65;;;2.30;;
21733;SDS011;11029;47.820;10.534;2023-11-21T15:40:02;23.15;;;12.25;;
21733;SDS011;11029;47.820;10.534;2023-11-21T15:42:50;20.40;;;14.93;;
21733;SDS011;11029;47.820;10.534;2023-11-21T15:45:36;33.75;;;28.55;;
21733;SDS011;11029;47.820;10.534;2023-11-21T15:48:24;23.20;;;16.83;;
21733;SDS011;11029;47.820;10.534;2023-11-21T15:51:10;9.85;;;6.65;;
21733;SDS011;11029;47.820;10.534;2023-11-21T15:53:57;5.55;;;4.10;;
21733;SDS011;11029;47.820;10.534;2023-11-21T15:56:43;2.55;;;1.52;;
21733;SDS011;11029;47.820;10.534;2023-11-21T15:59:29;4.75;;;2.88;;
21733;SDS011;11029;47.820;10.534;2023-11-21T16:02:19;8.57;;;5.22;;
21733;SDS011;11029;47.820;10.534;2023-11-21T16:05:05;6.40;;;4.20;;
21733;SDS011;11029;47.820;10.534;2023-11-21T16:07:52;6.32;;;4.40;;
21733;SDS011;11029;47.820;10.534;2023-11-21T16:10:40;4.32;;;3.13;;
21733;SDS011;11029;47.820;10.534;2023-11-21T16:13:25;2.55;;;2.03;;
21733;SDS011;11029;47.820;10.534;2023-11-21T16:16:11;9.85;;;4.60;;
21733;SDS011;11029;47.820;10.534;2023-11-21T16:18:57;18.55;;;11.07;;
21733;SDS011;11029;47.820;10.534;2023-11-21T16:21:44;12.23;;;8.55;;
21733;SDS011;11029;47.820;10.534;2023-11-21T16:24:31;10.63;;;9.23;;
21733;SDS011;11029;47.820;10.534;2023-11-21T16:27:18;15.48;;;9.80;;
21733;SDS011;11029;47.820;10.534;2023-11-21T16:30:04;7.32;;;3.78;;
21733;SDS011;11029;47.820;10.534;2023-11-21T16:32:54;1.10;;;1.00;;
21733;SDS011;11029;47.820;10.534;2023-11-21T16:35:40;2.20;;;2.00;;
21733;SDS011;11029;47.820;10.534;2023-11-21T16:38:26;2.65;;;2.22;;